sensor_id;sensor_type;location;lat;lon;timestamp;P1;durP1;ratioP1;P2;durP2;ratioP2
33810;SDS011;20119;48.334;16.206;2023-05-10T00:01:08;3.42;;;3.05;;
33810;SDS011;20119;48.334;16.206;2023-05-10T00:03:43;5.10;;;2.95;;
33810;SDS011;20119;48.334;16.206;2023-05-10T00:06:13;3.58;;;3.10;;
33810;SDS011;20119;48.334;16.206;2023-05-10T00:08:47;3.85;;;3.08;;
33810;SDS011;20119;48.334;16.206;2023-05-10T00:11:19;5.85;;;3.60;;
33810;SDS011;20119;48.334;16.206;2023-05-10T00:13:49;5.43;;;3.22;;
33810;SDS011;20119;48.334;16.206;2023-05-10T00:16:19;4.75;;;3.30;;
33810;SDS011;20119;48.334;16.206;2023-05-10T00:18:52;3.95;;;3.15;;
33810;SDS011;20119;48.334;16.206;2023-05-10T00:21:22;4.35;;;3.30;;
33810;SDS011;20119;48.334;16.206;2023-05-10T00:23:50;9.63;;;3.25;;
33810;SDS011;20119;48.334;16.206;2023-05-10T00:26:20;4.43;;;3.20;;
33810;SDS011;20119;48.334;16.206;2023-05-10T00:28:48;7.33;;;3.23;;
33810;SDS011;20119;48.334;16.206;2023-05-10T00:31:16;3.75;;;3.33;;
33810;SDS011;20119;48.334;16.206;2023-05-10T00:33:51;4.22;;;3.53;;
33810;SDS011;20119;48.334;16.206;2023-05-10T00:36:28;5.32;;;3.70;;
33810;SDS011;20119;48.334;16.206;2023-05-10T00:38:59;3.88;;;3.13;;
33810;SDS011;20119;48.334;16.206;2023-05-10T00:41:33;4.00;;;3.35;;
33810;SDS011;20119;48.334;16.206;2023-05-10T00:44:02;4.45;;;3.30;;
33810;SDS011;20119;48.334;16.206;2023-05-10T00:46:32;4.95;;;3.53;;
33810;SDS011;20119;48.334;16.206;2023-05-10T00:49:03;5.23;;;3.60;;
33810;SDS011;20119;48.334;16.206;2023-05-10T00:51:32;6.57;;;3.95;;
33810;SDS011;20119;48.334;16.206;2023-05-10T00:54:03;4.50;;;3.70;;
33810;SDS011;20119;48.334;16.206;2023-05-10T00:56:35;5.93;;;3.53;;
33810;SDS011;20119;48.334;16.206;2023-05-10T00:59:09;4.75;;;3.60;;
33810;SDS011;20119;48.334;16.206;2023-05-10T01:01:47;4.93;;;3.72;;
33810;SDS011;20119;48.334;16.206;2023-05-10T01:04:16;4.68;;;3.63;;
33810;SDS011;20119;48.334;16.206;2023-05-10T01:06:45;5.30;;;3.50;;
33810;SDS011;20119;48.334;16.206;2023-05-10T01:09:14;4.82;;;3.47;;
33810;SDS011;20119;48.334;16.206;2023-05-10T01:11:45;3.75;;;3.35;;
33810;SDS011;20119;48.334;16.206;2023-05-10T01:14:34;4.80;;;3.42;;
33810;SDS011;20119;48.334;16.206;2023-05-10T01:17:38;4.93;;;3.70;;
33810;SDS011;20119;48.334;16.206;2023-05-10T01:20:24;6.75;;;3.88;;
33810;SDS011;20119;48.334;16.206;2023-05-10T01:30:11;9.80;;;3.80;;
33810;SDS011;20119;48.334;16.206;2023-05-10T01:33:21;5.53;;;3.60;;
33810;SDS011;20119;48.334;16.206;2023-05-10T01:35:55;5.95;;;3.92;;
33810;SDS011;20119;48.334;16.206;2023-05-10T01:38:41;6.57;;;3.90;;
33810;SDS011;20119;48.334;16.206;2023-05-10T01:41:23;5.32;;;3.88;;
33810;SDS011;20119;48.334;16.206;2023-05-10T01:44:04;6.82;;;3.78;;
33810;SDS011;20119;48.334;16.206;2023-05-10T01:46:44;6.45;;;4.20;;
33810;SDS011;20119;48.334;16.206;2023-05-10T01:49:24;5.38;;;3.80;;
33810;SDS011;20119;48.334;16.206;2023-05-10T01:51:59;4.20;;;3.80;;
33810;SDS011;20119;48.334;16.206;2023-05-10T01:54:43;6.72;;;4.00;;
33810;SDS011;20119;48.334;16.206;2023-05-10T01:57:16;5.05;;;4.30;;
33810;SDS011;20119;48.334;16.206;2023-05-10T01:59:55;6.43;;;3.80;;
33810;SDS011;20119;48.334;16.206;2023-05-10T02:02:26;5.03;;;4.00;;
33810;SDS011;20119;48.334;16.206;2023-05-10T02:05:03;5.78;;;3.90;;
33810;SDS011;20119;48.334;16.206;2023-05-10T02:07:37;6.80;;;4.20;;
33810;SDS011;20119;48.334;16.206;2023-05-10T02:10:05;6.82;;;4.55;;
33810;SDS011;20119;48.334;16.206;2023-05-10T02:12:39;4.80;;;3.90;;
33810;SDS011;20119;48.334;16.206;2023-05-10T02:15:17;4.65;;;3.85;;
33810;SDS011;20119;48.334;16.206;2023-05-10T02:18:00;5.63;;;3.95;;
33810;SDS011;20119;48.334;16.206;2023-05-10T02:20:33;7.68;;;4.50;;
33810;SDS011;20119;48.334;16.206;2023-05-10T02:23:03;4.88;;;3.95;;
33810;SDS011;20119;48.334;16.206;2023-05-10T02:25:34;5.50;;;4.10;;
33810;SDS011;20119;48.334;16.206;2023-05-10T02:30:34;9.55;;;4.55;;
33810;SDS011;20119;48.334;16.206;2023-05-10T02:33:08;5.13;;;4.60;;
33810;SDS011;20119;48.334;16.206;2023-05-10T02:35:51;6.60;;;4.38;;
33810;SDS011;20119;48.334;16.206;2023-05-10T02:38:26;8.15;;;4.45;;
33810;SDS011;20119;48.334;16.206;2023-05-10T02:41:08;7.72;;;4.40;;
33810;SDS011;20119;48.334;16.206;2023-05-10T02:43:39;5.03;;;4.38;;
33810;SDS011;20119;48.334;16.206;2023-05-10T02:48:38;7.32;;;4.85;;
33810;SDS011;20119;48.334;16.206;2023-05-10T02:51:08;9.35;;;4.75;;
33810;SDS011;20119;48.334;16.206;2023-05-10T02:53:40;6.18;;;4.47;;
33810;SDS011;20119;48.334;16.206;2023-05-10T02:56:14;5.63;;;4.60;;
33810;SDS011;20119;48.334;16.206;2023-05-10T02:58:54;5.63;;;4.75;;
33810;SDS011;20119;48.334;16.206;2023-05-10T03:01:31;6.30;;;4.68;;
33810;SDS011;20119;48.334;16.206;2023-05-10T03:04:06;6.05;;;4.78;;
33810;SDS011;20119;48.334;16.206;2023-05-10T03:06:51;5.82;;;4.80;;
33810;SDS011;20119;48.334;16.206;2023-05-10T03:09:22;8.25;;;5.07;;
33810;SDS011;20119;48.334;16.206;2023-05-10T03:12:06;5.38;;;4.85;;
33810;SDS011;20119;48.334;16.206;2023-05-10T03:14:45;6.93;;;5.00;;
33810;SDS011;20119;48.334;16.206;2023-05-10T03:17:29;6.40;;;4.85;;
33810;SDS011;20119;48.334;16.206;2023-05-10T03:20:04;6.32;;;4.57;;
33810;SDS011;20119;48.334;16.206;2023-05-10T03:22:42;6.28;;;4.75;;
33810;SDS011;20119;48.334;16.206;2023-05-10T03:25:22;9.23;;;5.10;;
33810;SDS011;20119;48.334;16.206;2023-05-10T03:27:55;6.78;;;5.03;;
33810;SDS011;20119;48.334;16.206;2023-05-10T03:30:28;6.03;;;5.15;;
33810;SDS011;20119;48.334;16.206;2023-05-10T03:33:00;6.65;;;5.18;;
33810;SDS011;20119;48.334;16.206;2023-05-10T03:35:34;6.63;;;5.05;;
33810;SDS011;20119;48.334;16.206;2023-05-10T03:38:05;9.63;;;5.18;;
33810;SDS011;20119;48.334;16.206;2023-05-10T03:40:39;8.75;;;5.70;;
33810;SDS011;20119;48.334;16.206;2023-05-10T03:43:16;6.40;;;5.60;;
33810;SDS011;20119;48.334;16.206;2023-05-10T03:45:52;6.15;;;5.25;;
33810;SDS011;20119;48.334;16.206;2023-05-10T03:48:29;9.20;;;5.55;;
33810;SDS011;20119;48.334;16.206;2023-05-10T03:51:01;6.53;;;5.50;;
33810;SDS011;20119;48.334;16.206;2023-05-10T03:53:41;6.07;;;5.22;;
33810;SDS011;20119;48.334;16.206;2023-05-10T03:56:15;7.78;;;5.53;;
33810;SDS011;20119;48.334;16.206;2023-05-10T03:58:49;6.47;;;5.40;;
33810;SDS011;20119;48.334;16.206;2023-05-10T04:01:25;6.30;;;5.50;;
33810;SDS011;20119;48.334;16.206;2023-05-10T04:03:55;5.82;;;5.07;;
33810;SDS011;20119;48.334;16.206;2023-05-10T04:06:35;7.13;;;5.20;;
33810;SDS011;20119;48.334;16.206;2023-05-10T04:09:19;6.40;;;5.35;;
33810;SDS011;20119;48.334;16.206;2023-05-10T04:12:00;10.10;;;5.28;;
33810;SDS011;20119;48.334;16.206;2023-05-10T04:14:39;7.93;;;5.45;;
33810;SDS011;20119;48.334;16.206;2023-05-10T04:17:10;5.95;;;5.30;;
33810;SDS011;20119;48.334;16.206;2023-05-10T04:19:44;6.65;;;4.90;;
33810;SDS011;20119;48.334;16.206;2023-05-10T04:22:15;5.80;;;5.20;;
33810;SDS011;20119;48.334;16.206;2023-05-10T04:24:48;6.82;;;5.53;;
33810;SDS011;20119;48.334;16.206;2023-05-10T04:27:15;8.25;;;5.20;;
33810;SDS011;20119;48.334;16.206;2023-05-10T04:29:44;7.13;;;5.25;;
33810;SDS011;20119;48.334;16.206;2023-05-10T04:34:41;6.65;;;4.90;;
33810;SDS011;20119;48.334;16.206;2023-05-10T04:37:12;6.10;;;4.85;;
33810;SDS011;20119;48.334;16.206;2023-05-10T04:39:40;8.20;;;5.20;;
33810;SDS011;20119;48.334;16.206;2023-05-10T04:42:16;7.40;;;5.30;;
33810;SDS011;20119;48.334;16.206;2023-05-10T04:44:46;13.88;;;4.97;;
33810;SDS011;20119;48.334;16.206;2023-05-10T04:47:15;8.00;;;4.93;;
33810;SDS011;20119;48.334;16.206;2023-05-10T04:49:43;6.18;;;5.20;;
33810;SDS011;20119;48.334;16.206;2023-05-10T04:52:19;5.43;;;4.57;;
33810;SDS011;20119;48.334;16.206;2023-05-10T04:54:50;6.80;;;4.60;;
33810;SDS011;20119;48.334;16.206;2023-05-10T04:57:26;5.97;;;5.00;;
33810;SDS011;20119;48.334;16.206;2023-05-10T04:59:56;6.07;;;4.68;;
33810;SDS011;20119;48.334;16.206;2023-05-10T05:02:25;5.70;;;4.97;;
33810;SDS011;20119;48.334;16.206;2023-05-10T05:04:56;5.38;;;4.80;;
33810;SDS011;20119;48.334;16.206;2023-05-10T05:10:06;7.43;;;5.30;;
33810;SDS011;20119;48.334;16.206;2023-05-10T05:12:40;7.68;;;5.38;;
33810;SDS011;20119;48.334;16.206;2023-05-10T05:15:09;5.97;;;4.40;;
33810;SDS011;20119;48.334;16.206;2023-05-10T05:17:38;6.55;;;4.95;;
33810;SDS011;20119;48.334;16.206;2023-05-10T05:20:12;7.63;;;4.50;;
33810;SDS011;20119;48.334;16.206;2023-05-10T05:22:45;5.25;;;4.60;;
33810;SDS011;20119;48.334;16.206;2023-05-10T05:25:14;6.28;;;4.40;;
33810;SDS011;20119;48.334;16.206;2023-05-10T05:27:50;6.35;;;5.13;;
33810;SDS011;20119;48.334;16.206;2023-05-10T05:30:20;9.02;;;5.68;;
33810;SDS011;20119;48.334;16.206;2023-05-10T05:32:49;7.35;;;4.97;;
33810;SDS011;20119;48.334;16.206;2023-05-10T05:35:20;9.65;;;5.07;;
33810;SDS011;20119;48.334;16.206;2023-05-10T05:37:52;8.23;;;4.88;;
33810;SDS011;20119;48.334;16.206;2023-05-10T05:40:24;7.57;;;4.93;;
33810;SDS011;20119;48.334;16.206;2023-05-10T05:42:55;8.85;;;5.57;;
33810;SDS011;20119;48.334;16.206;2023-05-10T05:45:23;7.10;;;4.72;;
33810;SDS011;20119;48.334;16.206;2023-05-10T05:47:52;6.65;;;5.15;;
33810;SDS011;20119;48.334;16.206;2023-05-10T05:50:21;8.52;;;5.40;;
33810;SDS011;20119;48.334;16.206;2023-05-10T05:52:50;8.60;;;5.18;;
33810;SDS011;20119;48.334;16.206;2023-05-10T05:55:19;8.27;;;5.68;;
33810;SDS011;20119;48.334;16.206;2023-05-10T05:57:48;8.90;;;5.45;;
33810;SDS011;20119;48.334;16.206;2023-05-10T06:00:20;8.20;;;4.95;;
33810;SDS011;20119;48.334;16.206;2023-05-10T06:02:50;6.40;;;4.95;;
33810;SDS011;20119;48.334;16.206;2023-05-10T06:05:18;6.13;;;5.03;;
33810;SDS011;20119;48.334;16.206;2023-05-10T06:07:49;6.03;;;4.60;;
33810;SDS011;20119;48.334;16.206;2023-05-10T06:10:17;9.02;;;4.80;;
33810;SDS011;20119;48.334;16.206;2023-05-10T06:12:48;8.98;;;5.03;;
33810;SDS011;20119;48.334;16.206;2023-05-10T10:24:33;2.13;;;1.70;;
33810;SDS011;20119;48.334;16.206;2023-05-10T11:53:44;2.80;;;1.70;;
33810;SDS011;20119;48.334;16.206;2023-05-10T11:59:27;4.65;;;1.58;;
33810;SDS011;20119;48.334;16.206;2023-05-10T18:35:43;4.40;;;2.03;;
33810;SDS011;20119;48.334;16.206;2023-05-10T18:43:58;3.78;;;2.30;;
